Cle Elum, WA (98922)

4:23 AM PST on March 03, 2015 (GMT -0800)
Cle Elum-Roslyn High School | Change Station
CLOSE
Current Station
Personal Weather Station
Location: Cle Elum, WA
Elevation: 2107 ft
Nearby Weather Stations

Elev 2107 ft 47.20 °N, 120.97 °W | Updated 12 minutes ago

Partly Cloudy
Partly Cloudy
28.8 °F
Feels Like 29 °F
N
0.0
Wind Variable Wind from NW

Today
High -- | Low -- °F
--% Chance of Precip.
Yesterday
High -- | Low -- °F
Precip. -- in
6:40 AM 5:51 PM
Waxing Gibbous, 96% visible
Pressure 30.19 in
Visibility 10.0 miles
Clouds Scattered Clouds 6500 ft
Windchill 29 °F
Dew Point 25 °F
Humidity 84%
Rainfall 0.00 in
Snow Depth Not available.
UV 0.0 out of 12
Pollen 5.40 out of 12
Air Quality Not available.
Flu Activity Not available.
METAR KELN 031153Z AUTO 01005KT 10SM SCT065 M01/M06 A3016 RMK AO2 SLP224 70008 T10111056 10028 21022 51011

More Conditions Fewer Conditions

Pressure 30.19 in
Visibility 10.0 miles
Clouds Scattered Clouds 6500 ft
Windchill 29 °F
Dew Point 25 °F
Humidity 84%
Rainfall 0.00 in
Snow Depth Not available.
UV 0.0 out of 12
Pollen 5.40 out of 12
Air Quality Not available.
Flu Activity Not available.
METAR KELN 031153Z AUTO 01005KT 10SM SCT065 M01/M06 A3016 RMK AO2 SLP224 70008 T10111056 10028 21022 51011

More Conditions Fewer Conditions

10-Day Weather Forecast

Almanac

Astronomy

Mar. 03, 2015 Rise Set
Actual Time
Civil Twilight
Nautical Twilight
Astronomical Twilight
Moon
Length of Visible Light
Length of Day
Tomorrow will be .
, % of the Moon is Illuminated

Today's Extremes

State Highs State Lows

Community

WunderPhotos

Upload Photos

1,802,095 photos uploaded!

WunderBlogs® & News

Nearby

Air Quality

  Air Quality AQ Index Pollutant
Not available.

Snow Depth

Station Depth Elevation

Earthquake Activity

City Distance Mag. Time & Date
Minimum magnitude displayed is 2.5.

Coastal Water Temperatures

Place Temperature

Nearby Weather Stations